Terminal Aerodrome Forecast
Issued by NWS

Home | Current Version | Previous Version | Text Only | Print | Product List | Glossary On
Versions: 1 2 3 4 5 6 7 8 9 10 11 12 13 14 15 16 17 18 19 20 21 22 23 24 25 26 27 28 29 30 31 32 33 34 35 36 37 38 39 40 41 42 43 44 45 46
000
FTUS46 KEKA 240307 AAA
TAFACV
TAF AMD
KACV 240307Z 2403/2424 19008KT P6SM SCT035 OVC080
     FM240500 14011G18KT P6SM SCT015 BKN025 OVC045
     FM240900 16008G16KT 6SM BR VCSH OVC030
     FM241200 16009KT 4SM -RA BR BKN015 OVC025
     FM241500 15006KT 2SM RA BR SCT007 OVC015=

USA.gov is the U.S. government's official web portal to all federal, state and local government web resources and services.